Time;durP1;ratioP1;P1;durP2;ratioP2;P2;SDS_P1;SDS_P2;PMS_P1;PMS_P2;Temp;Humidity;BMP_temperature;BMP_pressure;BME280_temperature;BME280_humidity;BME280_pressure;Samples;Min_cycle;Max_cycle;Signal;HPM_P1;HPM_P2
2022/12/20 00:02:02;;;;;;;5.50;4.85;;;9.80;99.90;;;;;;5012891;28;20104;-91
2022/12/20 00:04:28;;;;;;;6.78;4.75;;;9.70;99.90;;;;;;5013878;28;20413;-90
2022/12/20 00:06:54;;;;;;;8.10;4.43;;;9.60;99.90;;;;;;5013868;28;20046;-90
2022/12/20 00:09:19;;;;;;;6.93;4.15;;;9.60;99.90;;;;;;4996641;28;20054;-90
2022/12/20 00:11:45;;;;;;;6.50;4.63;;;9.50;99.90;;;;;;4996154;28;20045;-88
2022/12/20 00:14:11;;;;;;;5.82;4.70;;;9.50;99.90;;;;;;5013291;28;20050;-90
2022/12/20 00:16:36;;;;;;;7.15;4.60;;;9.60;99.90;;;;;;5013799;28;20089;-91
2022/12/20 00:19:03;;;;;;;5.50;4.50;;;9.70;99.90;;;;;;4980178;28;20057;-91
2022/12/20 00:21:29;;;;;;;7.43;4.53;;;9.70;99.90;;;;;;4996617;28;20458;-89
2022/12/20 00:23:55;;;;;;;6.35;4.35;;;9.60;99.90;;;;;;4996106;28;20081;-90
2022/12/20 00:26:23;;;;;;;6.22;4.18;;;9.60;99.90;;;;;;4996116;28;20046;-90
2022/12/20 00:28:48;;;;;;;7.85;5.20;;;9.70;99.90;;;;;;4964943;28;20374;-90
2022/12/20 00:31:15;;;;;;;7.97;4.63;;;9.80;99.90;;;;;;5013569;28;20049;-91
2022/12/20 00:33:41;;;;;;;4.70;4.15;;;9.90;99.90;;;;;;4979616;28;20042;-89
2022/12/20 00:36:07;;;;;;;5.45;4.20;;;9.80;99.90;;;;;;5012553;28;20048;-90
2022/12/20 00:38:33;;;;;;;7.05;4.30;;;9.80;99.90;;;;;;4979666;28;20104;-89
2022/12/20 00:41:02;;;;;;;6.78;4.43;;;9.90;99.90;;;;;;4995896;28;20054;-89
2022/12/20 00:43:28;;;;;;;6.50;3.95;;;10.00;99.90;;;;;;4979987;28;20401;-89
2022/12/20 00:45:54;;;;;;;7.10;4.32;;;10.00;99.90;;;;;;4997219;28;20121;-89
2022/12/20 00:48:19;;;;;;;6.60;3.97;;;10.00;99.90;;;;;;5007425;28;20038;-89
2022/12/20 00:50:45;;;;;;;4.28;3.67;;;10.00;99.90;;;;;;4979995;28;20149;-90
2022/12/20 00:53:11;;;;;;;7.18;4.15;;;10.10;99.90;;;;;;5012821;28;20096;-90
2022/12/20 00:55:44;;;;;;;5.07;3.75;;;10.20;99.90;;;;;;4995946;28;20132;-91
2022/12/20 00:58:09;;;;;;;6.20;4.22;;;10.10;99.90;;;;;;4996015;28;20465;-89
2022/12/20 01:00:36;;;;;;;6.95;3.72;;;10.00;99.90;;;;;;4996229;28;20091;-90
2022/12/20 01:03:01;;;;;;;4.30;3.67;;;10.10;99.90;;;;;;4982590;28;20099;-88
2022/12/20 01:05:27;;;;;;;6.00;3.47;;;10.20;99.90;;;;;;4999410;28;20429;-88
2022/12/20 01:07:52;;;;;;;4.57;3.80;;;10.10;99.90;;;;;;4983295;28;20046;-89
2022/12/20 01:10:18;;;;;;;5.53;3.72;;;10.10;99.90;;;;;;4999334;28;20053;-89
2022/12/20 01:12:44;;;;;;;6.43;3.75;;;10.20;99.90;;;;;;4987605;28;20056;-89
2022/12/20 01:15:10;;;;;;;5.03;3.55;;;10.10;99.90;;;;;;5036614;28;20128;-89
2022/12/20 01:17:35;;;;;;;5.28;3.67;;;10.10;99.90;;;;;;5018940;28;20048;-89
2022/12/20 01:20:01;;;;;;;5.00;3.83;;;10.10;99.90;;;;;;5019071;28;20045;-89
2022/12/20 01:22:27;;;;;;;6.20;3.60;;;10.10;99.90;;;;;;5018669;28;20080;-91
2022/12/20 01:24:53;;;;;;;4.30;3.40;;;10.20;99.90;;;;;;5018761;28;20057;-89
2022/12/20 01:27:18;;;;;;;5.25;3.60;;;10.20;99.90;;;;;;5018806;28;20103;-90
2022/12/20 01:29:44;;;;;;;4.80;3.17;;;10.20;99.90;;;;;;5036757;28;20532;-90
2022/12/20 01:32:10;;;;;;;5.28;3.60;;;10.20;99.90;;;;;;5018784;28;20092;-90
2022/12/20 01:34:35;;;;;;;5.22;4.25;;;10.20;99.90;;;;;;5018485;28;20461;-89
2022/12/20 01:37:01;;;;;;;4.82;3.30;;;10.20;99.90;;;;;;5036316;28;20085;-90
2022/12/20 01:39:26;;;;;;;5.38;3.78;;;10.20;99.90;;;;;;5036523;28;20083;-91
2022/12/20 01:41:52;;;;;;;4.75;3.58;;;10.10;99.90;;;;;;5021477;28;20041;-89
2022/12/20 01:44:18;;;;;;;3.50;3.20;;;10.10;99.90;;;;;;5039440;28;20045;-90
2022/12/20 01:46:44;;;;;;;6.45;3.70;;;10.10;99.90;;;;;;5040233;28;20053;-89
2022/12/20 01:49:25;;;;;;;5.55;3.65;;;10.10;99.90;;;;;;5006341;28;20049;-90
2022/12/20 01:52:03;;;;;;;4.00;3.33;;;10.10;99.90;;;;;;5006721;28;20043;-91
2022/12/20 01:54:52;;;;;;;8.05;3.35;;;10.20;99.90;;;;;;5019341;28;20048;-90
2022/12/20 01:57:28;;;;;;;4.45;3.78;;;10.20;99.90;;;;;;5036202;28;20049;-91
2022/12/20 01:59:54;;;;;;;5.88;3.45;;;10.20;99.90;;;;;;5018714;28;20057;-88
2022/12/20 02:02:19;;;;;;;5.78;3.95;;;10.20;99.90;;;;;;5002254;28;20045;-91
2022/12/20 02:04:45;;;;;;;7.50;3.60;;;10.20;99.90;;;;;;5017966;28;20128;-91
2022/12/20 02:07:17;;;;;;;4.30;3.40;;;10.20;99.90;;;;;;5035723;28;20049;-91
2022/12/20 02:09:43;;;;;;;4.20;3.45;;;10.30;99.90;;;;;;5003062;28;20045;-90
2022/12/20 02:12:14;;;;;;;3.85;3.35;;;10.10;99.90;;;;;;5001720;28;20496;-91
2022/12/20 02:14:50;;;;;;;4.70;3.20;;;10.10;99.90;;;;;;4998551;28;20104;-91
2022/12/20 02:17:34;;;;;;;4.75;3.40;;;10.10;99.90;;;;;;5015569;28;20049;-91
2022/12/20 02:20:10;;;;;;;;;;;9.70;99.90;;;;;;4999396;28;20137;-91
2022/12/20 02:23:03;;;;;;;6.15;3.47;;;10.20;99.90;;;;;;5015529;28;19972;-90
2022/12/20 02:25:50;;;;;;;5.35;3.42;;;10.30;99.90;;;;;;5014778;28;20073;-91
2022/12/20 02:28:41;;;;;;;5.28;3.42;;;10.30;99.90;;;;;;5014443;28;20085;-91
2022/12/20 02:31:10;;;;;;;4.63;3.38;;;10.30;99.90;;;;;;5001344;28;20128;-92
2022/12/20 02:33:36;;;;;;;4.07;3.45;;;10.30;99.90;;;;;;4998084;28;20038;-90
2022/12/20 02:36:03;;;;;;;6.70;3.88;;;10.30;99.90;;;;;;4997717;28;20092;-91
2022/12/20 02:38:30;;;;;;;4.53;3.22;;;10.30;99.90;;;;;;5014706;28;20060;-91
2022/12/20 02:41:05;;;;;;;4.40;3.28;;;10.30;99.90;;;;;;5014980;28;20478;-90
2022/12/20 02:46:15;;;;;;;5.28;3.58;;;10.20;99.90;;;;;;4984033;28;20462;-91
2022/12/20 02:48:41;;;;;;;3.55;3.25;;;10.30;99.90;;;;;;4981637;28;20054;-91
2022/12/20 02:51:06;;;;;;;6.57;3.22;;;10.20;99.90;;;;;;4981498;28;20037;-92
2022/12/20 02:53:33;;;;;;;3.85;3.30;;;10.20;99.90;;;;;;4997287;28;20065;-91
2022/12/20 02:56:10;;;;;;;4.93;3.42;;;10.30;99.90;;;;;;4981906;28;20085;-91
2022/12/20 02:58:41;;;;;;;4.10;3.22;;;10.20;99.90;;;;;;5013728;28;20547;-90
2022/12/20 03:01:10;;;;;;;6.05;3.20;;;10.30;99.90;;;;;;4997602;28;20104;-91
2022/12/20 03:03:36;;;;;;;6.80;3.80;;;10.20;99.90;;;;;;4997502;28;20104;-90
2022/12/20 03:06:01;;;;;;;5.20;3.92;;;10.10;99.90;;;;;;4997760;28;20045;-92
2022/12/20 03:08:27;;;;;;;7.05;4.10;;;10.00;99.90;;;;;;4997432;28;20048;-91
2022/12/20 03:10:53;;;;;;;4.75;3.65;;;10.00;99.90;;;;;;4997087;28;20050;-90
2022/12/20 03:13:19;;;;;;;5.05;4.30;;;9.80;99.90;;;;;;4990839;28;20077;-91
2022/12/20 03:15:45;;;;;;;5.93;4.25;;;9.70;99.90;;;;;;5014470;28;20104;-90
2022/12/20 03:18:11;;;;;;;7.13;4.30;;;9.70;99.90;;;;;;5014686;28;20058;-89
2022/12/20 03:20:36;;;;;;;6.28;4.55;;;9.60;99.90;;;;;;4981100;28;20473;-89
2022/12/20 03:23:02;;;;;;;8.50;5.22;;;9.60;99.90;;;;;;4997222;28;20382;-88
2022/12/20 03:25:28;;;;;;;7.00;5.13;;;9.50;99.90;;;;;;5014377;28;20509;-88
2022/12/20 03:27:53;;;;;;;7.55;4.90;;;9.50;99.90;;;;;;5014243;28;20038;-87
2022/12/20 03:30:19;;;;;;;6.45;5.07;;;9.50;99.90;;;;;;5014536;28;20046;-89
2022/12/20 03:32:45;;;;;;;7.30;4.95;;;9.50;99.90;;;;;;4964418;28;20046;-87
2022/12/20 03:35:10;;;;;;;9.02;4.85;;;9.50;99.90;;;;;;4996626;28;20081;-87
2022/12/20 03:37:36;;;;;;;7.15;4.68;;;9.50;99.90;;;;;;4980659;28;20045;-88
2022/12/20 03:40:02;;;;;;;5.65;4.60;;;9.50;99.90;;;;;;4996561;28;20092;-88
2022/12/20 03:42:28;;;;;;;9.07;4.90;;;9.40;99.90;;;;;;5013726;28;20057;-87
2022/12/20 03:44:53;;;;;;;7.32;5.50;;;9.40;99.90;;;;;;5013952;28;20125;-87
2022/12/20 03:47:19;;;;;;;6.47;4.55;;;9.50;99.90;;;;;;5014755;28;20088;-87
2022/12/20 03:49:45;;;;;;;7.10;4.97;;;9.40;99.90;;;;;;4996990;28;20057;-87
2022/12/20 03:52:14;;;;;;;6.30;4.68;;;9.40;99.90;;;;;;5014434;28;20038;-88
2022/12/20 03:54:40;;;;;;;6.07;5.38;;;9.40;99.90;;;;;;4980357;28;20627;-88
2022/12/20 03:57:05;;;;;;;6.90;5.20;;;9.40;99.90;;;;;;4948954;28;20050;-88
2022/12/20 03:59:31;;;;;;;6.70;4.85;;;9.30;99.90;;;;;;4982148;28;20050;-88
2022/12/20 04:01:57;;;;;;;7.65;4.80;;;9.40;99.90;;;;;;4980385;28;20053;-88
2022/12/20 04:04:22;;;;;;;7.20;4.45;;;9.40;99.90;;;;;;5014802;28;20530;-89
2022/12/20 04:06:48;;;;;;;5.45;4.40;;;9.50;99.90;;;;;;5022165;28;20097;-88
2022/12/20 04:09:14;;;;;;;6.00;5.15;;;9.50;99.90;;;;;;4996312;28;20060;-87
2022/12/20 04:11:39;;;;;;;7.72;5.00;;;9.50;99.90;;;;;;5013640;28;20092;-87
2022/12/20 04:14:05;;;;;;;5.03;3.83;;;9.50;99.90;;;;;;5014014;28;20431;-88
2022/12/20 04:16:31;;;;;;;6.35;4.82;;;9.50;99.90;;;;;;4979914;28;20120;-89
2022/12/20 04:18:57;;;;;;;7.50;4.93;;;9.50;99.90;;;;;;4980197;28;20042;-87
2022/12/20 04:21:23;;;;;;;6.88;4.95;;;9.60;99.90;;;;;;4979982;28;20113;-88
2022/12/20 04:23:49;;;;;;;6.00;5.22;;;9.50;99.90;;;;;;4996667;28;20457;-88
2022/12/20 04:26:15;;;;;;;6.78;4.43;;;9.60;99.90;;;;;;4980042;28;20077;-87
2022/12/20 04:28:41;;;;;;;5.50;4.47;;;9.70;99.90;;;;;;4996128;28;20077;-88
2022/12/20 04:31:06;;;;;;;8.20;5.50;;;9.60;99.90;;;;;;4979848;28;20136;-88
2022/12/20 04:33:32;;;;;;;6.60;5.32;;;9.70;99.90;;;;;;5013511;28;20042;-87
2022/12/20 04:35:58;;;;;;;8.18;5.28;;;9.80;99.90;;;;;;4997090;28;20073;-87
2022/12/20 04:38:23;;;;;;;7.45;5.03;;;9.80;99.90;;;;;;5017415;28;20128;-88
2022/12/20 04:40:50;;;;;;;7.40;5.32;;;9.80;99.90;;;;;;5017565;28;20132;-86
2022/12/20 04:43:16;;;;;;;9.20;5.10;;;9.80;99.90;;;;;;5000028;28;20042;-88
2022/12/20 04:45:43;;;;;;;6.97;5.60;;;9.70;99.90;;;;;;4983592;28;20110;-87
2022/12/20 04:48:08;;;;;;;6.72;5.20;;;9.70;99.90;;;;;;5019214;28;20058;-87
2022/12/20 04:50:34;;;;;;;7.53;4.88;;;9.80;99.90;;;;;;5019982;28;20053;-87
2022/12/20 04:55:44;;;;;;;7.32;5.50;;;9.80;99.90;;;;;;4999765;28;20056;-88
2022/12/20 04:58:09;;;;;;;7.82;5.28;;;9.90;99.90;;;;;;5017039;28;20050;-88
2022/12/20 05:00:35;;;;;;;8.00;5.28;;;9.80;99.90;;;;;;4999484;28;20042;-88
2022/12/20 05:03:01;;;;;;;9.23;5.38;;;9.90;99.90;;;;;;4983191;28;20567;-87
2022/12/20 05:05:26;;;;;;;6.53;4.88;;;9.90;99.90;;;;;;5018137;28;20045;-88
2022/12/20 05:07:52;;;;;;;7.10;4.95;;;9.90;99.90;;;;;;4984828;28;20406;-88
2022/12/20 05:10:18;;;;;;;6.95;4.90;;;9.90;99.90;;;;;;4999212;28;20046;-87
2022/12/20 05:12:43;;;;;;;6.88;4.25;;;9.90;99.90;;;;;;5000138;28;20112;-88
2022/12/20 05:15:10;;;;;;;7.78;4.80;;;10.00;99.90;;;;;;4999583;28;20115;-88
2022/12/20 05:17:36;;;;;;;6.10;5.00;;;10.00;99.90;;;;;;4999276;28;20089;-88
2022/12/20 05:20:01;;;;;;;5.95;4.35;;;10.00;99.90;;;;;;4999357;28;20139;-87
2022/12/20 05:27:56;;;;;;;;;;;10.10;99.90;;;;;;5003136;28;20140;-89
2022/12/20 05:30:22;;;;;;;6.63;5.00;;;10.00;99.90;;;;;;5015986;28;20369;-89
2022/12/20 05:32:47;;;;;;;6.60;4.38;;;10.10;99.90;;;;;;5016373;28;20050;-88
2022/12/20 05:35:13;;;;;;;4.95;3.80;;;10.10;99.90;;;;;;5016266;28;20044;-88
2022/12/20 05:37:39;;;;;;;5.15;4.60;;;10.20;99.90;;;;;;5016604;28;20104;-88
2022/12/20 05:40:07;;;;;;;8.27;4.50;;;10.20;99.90;;;;;;5016964;28;20046;-88
2022/12/20 05:42:33;;;;;;;5.10;4.07;;;10.10;99.90;;;;;;4998997;28;20103;-88
2022/12/20 05:45:00;;;;;;;4.60;4.00;;;10.00;99.90;;;;;;5016544;28;20049;-88
2022/12/20 05:47:26;;;;;;;8.07;4.10;;;10.10;99.90;;;;;;5014306;28;20049;-87
2022/12/20 05:49:52;;;;;;;6.25;3.92;;;10.00;99.90;;;;;;5014999;28;20100;-88
2022/12/20 05:52:17;;;;;;;5.05;4.10;;;10.00;99.90;;;;;;5031765;28;20049;-89
2022/12/20 05:54:43;;;;;;;7.00;4.70;;;10.10;99.90;;;;;;5031368;28;20085;-88
2022/12/20 05:57:09;;;;;;;5.60;3.90;;;10.00;99.90;;;;;;5014882;28;20094;-90
2022/12/20 05:59:34;;;;;;;5.78;3.90;;;10.20;99.90;;;;;;5015029;28;20061;-88
2022/12/20 06:02:00;;;;;;;6.80;3.80;;;10.20;99.90;;;;;;5014792;28;20046;-89
2022/12/20 06:04:26;;;;;;;5.40;4.05;;;10.20;99.90;;;;;;4999323;28;20050;-90
2022/12/20 06:06:51;;;;;;;6.82;3.78;;;10.20;99.90;;;;;;5015913;28;20387;-89
2022/12/20 06:09:17;;;;;;;6.35;4.10;;;10.20;99.90;;;;;;5014077;28;20073;-89
2022/12/20 06:11:43;;;;;;;4.55;3.88;;;10.20;99.90;;;;;;5016165;28;20052;-88
2022/12/20 06:14:08;;;;;;;7.47;4.07;;;10.20;99.90;;;;;;5016679;28;20057;-89
2022/12/20 06:16:35;;;;;;;3.83;3.40;;;10.20;99.90;;;;;;5015824;28;20057;-89
2022/12/20 06:19:01;;;;;;;5.70;3.95;;;10.20;99.90;;;;;;5015449;28;20054;-88
2022/12/20 06:21:27;;;;;;;5.75;3.92;;;10.30;99.90;;;;;;4998049;28;20389;-89
2022/12/20 06:23:53;;;;;;;7.85;4.03;;;10.20;99.90;;;;;;5014424;28;20124;-88
2022/12/20 06:26:21;;;;;;;7.75;4.20;;;10.40;99.90;;;;;;4998488;28;20057;-89
2022/12/20 06:28:51;;;;;;;7.10;4.55;;;10.30;99.90;;;;;;4998686;28;20049;-90
2022/12/20 06:31:16;;;;;;;5.65;4.30;;;10.40;99.90;;;;;;4982598;28;20489;-89
2022/12/20 06:33:42;;;;;;;3.83;3.40;;;10.30;99.90;;;;;;4966024;28;20070;-90
2022/12/20 06:36:08;;;;;;;5.88;3.72;;;10.30;99.90;;;;;;5014251;28;20042;-89
2022/12/20 06:38:33;;;;;;;5.88;3.60;;;10.40;99.90;;;;;;5015080;28;20512;-89
2022/12/20 06:40:59;;;;;;;4.25;3.58;;;10.40;99.90;;;;;;5015104;28;20088;-89
2022/12/20 06:43:25;;;;;;;5.40;4.00;;;10.50;99.90;;;;;;5015490;28;20042;-89
2022/12/20 06:45:50;;;;;;;4.93;3.80;;;10.60;99.90;;;;;;5015333;28;20153;-89
2022/12/20 06:48:16;;;;;;;6.32;3.90;;;10.40;99.90;;;;;;5014824;28;20049;-89
2022/12/20 06:50:42;;;;;;;5.40;4.07;;;10.40;99.90;;;;;;5015334;28;20073;-89
2022/12/20 06:53:07;;;;;;;5.05;4.53;;;10.40;99.90;;;;;;4997707;28;20061;-89
2022/12/20 06:55:33;;;;;;;6.03;4.75;;;10.40;99.90;;;;;;4997893;28;20115;-89
2022/12/20 06:57:58;;;;;;;6.93;4.57;;;10.30;99.90;;;;;;5014944;28;20050;-89
2022/12/20 07:00:24;;;;;;;5.97;4.50;;;10.30;99.90;;;;;;5013666;28;20041;-89
2022/12/20 07:02:50;;;;;;;8.02;4.82;;;10.20;99.90;;;;;;5013936;28;20052;-89
2022/12/20 07:05:15;;;;;;;6.00;5.05;;;10.10;99.90;;;;;;5015166;28;20137;-88
2022/12/20 07:07:41;;;;;;;7.07;5.40;;;10.00;99.90;;;;;;5014251;28;20053;-88
2022/12/20 07:10:07;;;;;;;9.77;5.57;;;10.00;99.90;;;;;;5015188;28;20050;-88
2022/12/20 07:12:33;;;;;;;5.97;5.20;;;10.00;99.90;;;;;;4996834;28;20133;-89
2022/12/20 07:14:59;;;;;;;7.55;5.45;;;10.00;99.90;;;;;;4997694;28;20129;-89
2022/12/20 07:17:24;;;;;;;7.72;5.90;;;10.00;99.90;;;;;;5014403;28;20041;-89
2022/12/20 07:19:50;;;;;;;7.35;5.53;;;10.10;99.90;;;;;;4964846;28;20045;-89
2022/12/20 07:22:16;;;;;;;10.82;6.25;;;10.00;99.90;;;;;;5014295;28;20038;-88
2022/12/20 07:24:41;;;;;;;8.85;6.90;;;10.00;99.90;;;;;;4996853;28;20044;-88
2022/12/20 07:27:07;;;;;;;10.82;6.75;;;10.00;99.90;;;;;;4996700;28;20441;-89
2022/12/20 07:29:33;;;;;;;9.75;6.75;;;10.00;99.90;;;;;;5013863;28;20100;-89
2022/12/20 07:31:58;;;;;;;10.10;6.13;;;10.00;99.90;;;;;;4997253;28;20046;-88
2022/12/20 07:34:24;;;;;;;9.27;6.22;;;10.00;99.90;;;;;;4981308;28;20049;-90
2022/12/20 07:36:50;;;;;;;10.05;6.72;;;10.00;99.90;;;;;;5014849;28;20382;-88
2022/12/20 07:39:15;;;;;;;8.43;7.40;;;10.00;99.90;;;;;;4965165;28;20525;-88
2022/12/20 07:41:41;;;;;;;6.85;5.88;;;10.00;99.90;;;;;;4997474;28;20494;-89
2022/12/20 07:44:07;;;;;;;8.02;6.35;;;10.10;99.90;;;;;;5013932;28;20534;-90
2022/12/20 07:46:32;;;;;;;8.40;6.85;;;10.00;99.90;;;;;;4997192;28;20053;-88
2022/12/20 07:48:58;;;;;;;10.05;6.75;;;10.00;99.90;;;;;;5013841;28;20454;-88
2022/12/20 07:51:27;;;;;;;9.77;6.75;;;10.00;99.90;;;;;;4980228;28;20468;-91
2022/12/20 07:54:03;;;;;;;10.90;6.78;;;10.10;99.90;;;;;;4964433;28;20084;-88
2022/12/20 07:56:30;;;;;;;9.27;6.93;;;10.10;99.90;;;;;;4981828;28;20128;-88
2022/12/20 07:58:57;;;;;;;10.40;6.85;;;10.10;99.90;;;;;;4996447;28;20533;-88
2022/12/20 08:01:25;;;;;;;9.10;6.68;;;10.10;99.90;;;;;;4996180;28;20104;-88
2022/12/20 08:03:52;;;;;;;12.40;7.18;;;10.00;99.90;;;;;;4981409;28;20052;-88
2022/12/20 08:06:18;;;;;;;11.40;7.00;;;10.00;99.90;;;;;;5014224;28;20053;-89
2022/12/20 08:08:46;;;;;;;10.90;7.15;;;10.00;99.90;;;;;;4980749;28;20045;-88
2022/12/20 08:11:12;;;;;;;8.95;6.82;;;10.00;99.90;;;;;;4964486;28;20089;-88
2022/12/20 08:13:38;;;;;;;14.18;7.68;;;10.00;99.90;;;;;;4987993;28;20533;-89
2022/12/20 08:16:04;;;;;;;8.90;7.00;;;10.00;99.90;;;;;;4980588;28;20045;-88
2022/12/20 08:18:30;;;;;;;8.65;6.97;;;10.00;99.90;;;;;;4980096;28;20478;-89
2022/12/20 08:20:56;;;;;;;10.13;7.10;;;10.00;99.90;;;;;;4996917;28;20104;-89
2022/12/20 08:23:22;;;;;;;11.50;6.90;;;10.00;99.90;;;;;;5014099;28;20370;-87
2022/12/20 08:25:47;;;;;;;8.20;6.20;;;10.00;99.90;;;;;;4980419;28;20054;-88
2022/12/20 08:28:13;;;;;;;7.95;6.22;;;10.00;99.90;;;;;;5013458;28;20053;-89
2022/12/20 08:30:39;;;;;;;10.57;6.40;;;10.10;99.90;;;;;;5012820;28;20061;-89
2022/12/20 08:33:04;;;;;;;8.73;5.93;;;10.10;99.90;;;;;;5013376;28;20053;-90
2022/12/20 08:35:30;;;;;;;9.60;6.60;;;10.20;99.90;;;;;;5013847;28;20131;-91
2022/12/20 08:37:56;;;;;;;10.10;5.93;;;10.10;99.90;;;;;;4980098;28;20061;-90
2022/12/20 08:40:21;;;;;;;8.13;5.88;;;10.20;99.90;;;;;;4963794;28;20041;-90
2022/12/20 08:42:47;;;;;;;8.43;5.82;;;10.10;99.90;;;;;;5012391;28;20120;-89
2022/12/20 08:45:13;;;;;;;9.20;5.78;;;10.20;99.90;;;;;;4980284;28;20134;-90
2022/12/20 08:47:45;;;;;;;8.73;5.50;;;10.30;99.90;;;;;;4964346;28;20081;-88
2022/12/20 08:50:19;;;;;;;6.85;5.60;;;10.30;99.90;;;;;;4986485;28;20177;-89
2022/12/20 08:52:51;;;;;;;6.88;5.00;;;10.30;99.90;;;;;;4986899;28;20046;-89
2022/12/20 08:55:18;;;;;;;6.93;5.20;;;10.30;99.90;;;;;;5002923;28;20050;-89
2022/12/20 08:57:49;;;;;;;5.88;5.03;;;10.30;99.90;;;;;;5018668;28;20053;-89
2022/12/20 09:00:37;;;;;;;6.72;5.13;;;10.30;99.90;;;;;;5018520;28;20137;-90
2022/12/20 09:03:06;;;;;;;5.80;5.05;;;10.30;99.90;;;;;;5016813;28;20129;-94
2022/12/20 09:05:32;;;;;;;7.05;4.72;;;10.20;99.90;;;;;;4980881;28;20056;-93
2022/12/20 09:07:58;;;;;;;9.00;4.50;;;10.30;99.90;;;;;;4981526;28;20054;-95
2022/12/20 09:10:23;;;;;;;8.70;4.70;;;10.30;99.90;;;;;;4995869;28;20046;-90
2022/12/20 09:12:49;;;;;;;5.70;4.85;;;10.20;99.90;;;;;;4981499;28;20133;-95
2022/12/20 09:15:15;;;;;;;5.28;4.38;;;10.30;99.90;;;;;;4980145;28;20058;-91
2022/12/20 09:17:40;;;;;;;4.97;4.47;;;10.20;99.90;;;;;;5014677;28;20184;-93
2022/12/20 09:20:06;;;;;;;7.80;4.93;;;10.30;99.90;;;;;;5013031;28;20049;-94
2022/12/20 09:22:32;;;;;;;8.00;4.78;;;10.30;99.90;;;;;;4999056;28;20092;-93
2022/12/20 09:24:58;;;;;;;6.30;4.70;;;10.30;99.90;;;;;;5028836;28;20046;-94
2022/12/20 09:27:23;;;;;;;6.25;4.43;;;10.30;99.90;;;;;;5025890;28;20053;-95
2022/12/20 09:29:49;;;;;;;5.85;3.97;;;10.30;99.90;;;;;;4967561;28;20049;-92
2022/12/20 09:32:15;;;;;;;8.43;4.63;;;10.40;99.90;;;;;;4998743;28;20085;-91
2022/12/20 09:34:40;;;;;;;7.07;4.47;;;10.50;99.90;;;;;;4987607;28;20049;-94
2022/12/20 09:37:07;;;;;;;4.85;3.90;;;10.40;99.90;;;;;;5005902;28;20041;-90
2022/12/20 09:39:35;;;;;;;8.65;5.57;;;10.50;99.90;;;;;;5022235;28;20046;-88
2022/12/20 09:42:00;;;;;;;5.78;3.38;;;10.80;99.90;;;;;;5025172;28;20041;-90
2022/12/20 09:44:32;;;;;;;5.88;4.05;;;10.70;99.90;;;;;;4975481;28;20481;-88
2022/12/20 09:47:01;;;;;;;5.28;4.10;;;10.70;99.90;;;;;;4990849;28;20077;-90
2022/12/20 09:49:28;;;;;;;6.63;3.60;;;10.70;99.90;;;;;;4975515;28;20053;-89
2022/12/20 09:52:14;;;;;;;5.30;3.45;;;10.70;99.90;;;;;;4973867;28;20045;-89
2022/12/20 09:55:04;;;;;;;6.50;3.83;;;10.70;99.90;;;;;;4988936;28;20486;-91
2022/12/20 09:57:45;;;;;;;7.00;4.00;;;10.80;99.90;;;;;;4990760;28;20133;-90
2022/12/20 10:00:15;;;;;;;5.38;3.40;;;10.80;99.90;;;;;;4991277;28;20049;-90
2022/12/20 10:02:41;;;;;;;5.57;3.50;;;10.70;99.90;;;;;;4991912;28;20403;-88
2022/12/20 10:05:29;;;;;;;5.63;3.70;;;10.80;99.90;;;;;;4987560;28;20046;-88
2022/12/20 10:08:26;;;;;;;5.68;3.50;;;10.80;99.90;;;;;;5001176;28;20061;-89
2022/12/20 10:10:55;;;;;;;5.88;3.30;;;10.80;99.90;;;;;;4975470;28;20076;-89
2022/12/20 10:13:31;;;;;;;7.47;4.28;;;10.80;99.90;;;;;;4989458;28;20085;-89
2022/12/20 10:16:28;;;;;;;6.70;4.13;;;10.70;99.90;;;;;;5017555;28;20045;-89
2022/12/20 10:19:11;;;;;;;4.20;3.80;;;10.70;99.90;;;;;;5001138;28;20049;-89
2022/12/20 10:21:47;;;;;;;4.60;3.78;;;10.70;99.90;;;;;;5035333;28;20058;-88
2022/12/20 10:24:17;;;;;;;4.63;3.78;;;10.70;99.90;;;;;;5004501;28;20057;-91
2022/12/20 10:26:43;;;;;;;5.80;3.92;;;10.60;99.90;;;;;;5036498;28;20115;-89
2022/12/20 10:29:08;;;;;;;5.72;3.90;;;10.60;99.90;;;;;;5006475;28;20142;-89
2022/12/20 10:31:35;;;;;;;4.13;3.53;;;10.60;99.90;;;;;;5024355;28;20050;-88
2022/12/20 10:34:00;;;;;;;5.25;3.85;;;10.60;99.90;;;;;;5007833;28;20069;-94
2022/12/20 10:36:34;;;;;;;5.32;3.65;;;10.60;99.90;;;;;;5022639;28;20164;-88
2022/12/20 10:39:04;;;;;;;5.28;3.28;;;10.60;99.90;;;;;;5017513;28;20077;-89
2022/12/20 10:41:37;;;;;;;4.45;4.03;;;10.50;99.90;;;;;;4982482;28;20061;-90
2022/12/20 10:44:05;;;;;;;7.13;4.28;;;10.50;99.90;;;;;;4998299;28;20054;-89
2022/12/20 10:46:45;;;;;;;5.47;4.30;;;10.50;99.90;;;;;;4998164;28;20042;-88
2022/12/20 10:49:34;;;;;;;6.15;4.00;;;10.40;99.90;;;;;;4999033;28;20121;-89
2022/12/20 10:52:08;;;;;;;5.15;4.18;;;10.50;99.90;;;;;;4998025;28;20058;-88
2022/12/20 10:54:37;;;;;;;4.68;3.90;;;10.40;99.90;;;;;;4998741;28;20042;-90
2022/12/20 10:57:15;;;;;;;7.32;3.85;;;10.40;99.90;;;;;;5013699;28;20041;-93
2022/12/20 10:59:48;;;;;;;5.85;3.90;;;10.50;99.90;;;;;;5014836;28;20049;-91
2022/12/20 11:02:28;;;;;;;6.50;4.00;;;10.60;99.90;;;;;;4998155;28;20080;-90
2022/12/20 11:05:01;;;;;;;7.07;4.13;;;10.50;99.90;;;;;;5014775;28;20045;-91
2022/12/20 11:07:31;;;;;;;5.18;4.22;;;10.60;99.90;;;;;;5014702;28;20046;-91
2022/12/20 11:09:59;;;;;;;7.55;3.67;;;10.50;99.90;;;;;;4997434;28;20050;-91
2022/12/20 11:12:24;;;;;;;5.20;4.70;;;10.50;99.90;;;;;;5013774;28;20061;-92
2022/12/20 11:14:51;;;;;;;4.53;4.05;;;10.50;99.90;;;;;;4997180;28;20470;-90
2022/12/20 11:17:22;;;;;;;6.38;4.38;;;10.50;99.90;;;;;;4981190;28;20089;-89
2022/12/20 11:19:57;;;;;;;5.60;4.18;;;10.50;99.90;;;;;;4981749;28;20108;-89
2022/12/20 11:22:44;;;;;;;5.88;4.60;;;10.50;99.90;;;;;;5015895;28;20050;-90
2022/12/20 11:25:33;;;;;;;5.55;4.15;;;10.60;99.90;;;;;;5013950;28;20054;-89
2022/12/20 11:28:08;;;;;;;5.32;4.53;;;10.60;99.90;;;;;;4983949;28;20053;-88
2022/12/20 11:31:21;;;;;;;7.65;4.15;;;10.60;99.90;;;;;;4983840;28;20100;-88
2022/12/20 11:33:49;;;;;;;8.30;4.80;;;10.60;99.90;;;;;;4962749;28;20448;-89
2022/12/20 11:36:29;;;;;;;6.18;4.53;;;10.60;99.90;;;;;;5013532;28;20053;-89
2022/12/20 11:39:11;;;;;;;4.30;3.70;;;10.60;99.90;;;;;;4982705;28;20042;-89
2022/12/20 11:42:06;;;;;;;5.55;4.22;;;10.70;99.90;;;;;;4998476;28;20054;-89
2022/12/20 11:44:58;;;;;;;5.57;4.30;;;10.70;99.90;;;;;;4912636;28;20138;-88
2022/12/20 11:47:43;;;;;;;4.65;3.78;;;10.70;99.90;;;;;;4980287;28;20052;-88
2022/12/20 11:50:12;;;;;;;;;;;10.70;99.90;;;;;;5013448;28;20115;-87
2022/12/20 11:52:49;;;;;;;8.57;4.32;;;10.80;99.90;;;;;;5014081;28;19921;-90
2022/12/20 11:55:28;;;;;;;5.70;3.88;;;10.70;99.90;;;;;;4982566;28;20050;-87
2022/12/20 11:58:12;;;;;;;4.85;4.28;;;10.70;99.90;;;;;;4996573;28;20049;-89
2022/12/20 12:00:37;;;;;;;6.72;3.47;;;10.70;99.90;;;;;;4965818;28;20367;-89
2022/12/20 12:03:09;;;;;;;4.43;4.03;;;10.70;99.90;;;;;;5013777;28;20188;-89
2022/12/20 12:05:43;;;;;;;4.97;4.22;;;10.60;99.90;;;;;;4981150;28;20128;-89
2022/12/20 12:08:17;;;;;;;5.20;4.20;;;10.80;99.90;;;;;;4997082;28;20054;-90
2022/12/20 12:10:54;;;;;;;;;;;10.70;99.90;;;;;;4980950;28;20046;-91
2022/12/20 12:13:24;;;;;;;6.82;4.10;;;10.70;99.90;;;;;;5000771;28;19925;-87
2022/12/20 12:15:53;;;;;;;6.85;4.10;;;10.60;99.90;;;;;;4997069;28;20417;-89
2022/12/20 12:18:32;;;;;;;4.40;3.90;;;10.60;99.90;;;;;;4980146;28;20045;-88
2022/12/20 12:21:04;;;;;;;7.18;4.13;;;10.60;99.90;;;;;;4997052;28;20065;-89
2022/12/20 12:23:42;;;;;;;7.15;4.30;;;10.60;99.90;;;;;;5029370;28;20057;-89
2022/12/20 12:26:13;;;;;;;4.63;3.92;;;10.60;99.90;;;;;;5029166;28;20057;-88
2022/12/20 12:28:39;;;;;;;5.55;4.15;;;10.60;99.90;;;;;;5028932;28;20053;-87
2022/12/20 12:31:17;;;;;;;4.93;4.43;;;10.60;99.90;;;;;;4996635;28;20377;-87
2022/12/20 12:33:47;;;;;;;8.35;4.68;;;10.60;99.90;;;;;;4997296;28;20046;-87
2022/12/20 12:36:29;;;;;;;4.72;4.22;;;10.60;99.90;;;;;;4981179;28;20057;-87
2022/12/20 12:39:29;;;;;;;9.55;4.25;;;10.60;99.90;;;;;;4998397;28;20049;-87
2022/12/20 12:42:06;;;;;;;4.82;4.32;;;10.60;99.90;;;;;;4996377;28;20049;-89
2022/12/20 12:44:38;;;;;;;4.60;3.97;;;10.60;99.90;;;;;;4981026;28;20050;-88
2022/12/20 12:47:16;;;;;;;6.55;4.55;;;10.50;99.90;;;;;;4980366;28;20054;-88
2022/12/20 12:49:42;;;;;;;6.10;4.07;;;10.50;99.90;;;;;;4981184;28;20058;-89
2022/12/20 12:52:48;;;;;;;6.70;5.28;;;10.50;99.90;;;;;;4996000;28;20057;-89
2022/12/20 12:55:35;;;;;;;6.93;5.20;;;10.50;99.90;;;;;;4996895;28;20062;-88
2022/12/20 12:58:23;;;;;;;7.07;5.97;;;10.50;99.90;;;;;;5029944;28;20096;-87
2022/12/20 13:00:51;;;;;;;7.07;4.95;;;10.50;99.90;;;;;;5032286;28;20132;-87
2022/12/20 13:03:39;;;;;;;7.90;5.20;;;10.50;99.90;;;;;;5032399;28;20053;-87
2022/12/20 13:06:37;;;;;;;7.75;5.55;;;10.40;99.90;;;;;;5032226;28;20129;-89
2022/12/20 13:09:03;;;;;;;6.68;5.10;;;10.50;99.90;;;;;;5004455;28;20093;-88
2022/12/20 13:11:32;;;;;;;6.82;5.60;;;10.50;99.90;;;;;;5032106;28;20053;-89
2022/12/20 13:14:13;;;;;;;7.13;6.05;;;10.50;99.90;;;;;;5006132;28;20137;-89